createdAt,value
2023-04-15T00:02:18.643Z,6.15
2023-04-15T00:04:48.069Z,6.40
2023-04-15T00:07:16.261Z,5.60
2023-04-15T00:09:44.624Z,5.65
2023-04-15T00:12:12.386Z,6.25
2023-04-15T00:14:40.076Z,6.65
2023-04-15T00:17:07.559Z,5.78
2023-04-15T00:19:35.014Z,6.63
2023-04-15T00:22:03.804Z,6.35
2023-04-15T00:24:31.565Z,6.20
2023-04-15T00:26:59.902Z,6.22
2023-04-15T00:29:27.519Z,5.82
2023-04-15T00:31:55.264Z,6.85
2023-04-15T00:34:22.726Z,5.97
2023-04-15T00:36:50.228Z,6.45
2023-04-15T00:39:19.085Z,6.22
2023-04-15T00:41:47.223Z,6.00
2023-04-15T00:44:15.231Z,6.22
2023-04-15T00:46:44.114Z,6.60
2023-04-15T00:49:11.802Z,6.72
2023-04-15T00:51:39.354Z,7.00
2023-04-15T00:54:07.746Z,7.20
2023-04-15T00:56:38.595Z,7.05
2023-04-15T00:59:07.145Z,7.53
2023-04-15T01:01:35.755Z,7.13
2023-04-15T01:04:03.668Z,7.57
2023-04-15T01:06:32.301Z,8.13
2023-04-15T01:09:00.760Z,8.02
2023-04-15T01:11:28.891Z,7.72
2023-04-15T01:13:59.959Z,7.55
2023-04-15T01:16:28.705Z,9.48
2023-04-15T01:18:56.937Z,9.23
2023-04-15T01:21:24.773Z,8.88
2023-04-15T01:23:53.715Z,8.57
2023-04-15T01:26:23.365Z,9.40
2023-04-15T01:28:51.738Z,9.10
2023-04-15T01:31:19.271Z,9.05
2023-04-15T01:33:47.487Z,8.63
2023-04-15T01:36:15.067Z,7.90
2023-04-15T01:38:42.534Z,8.70
2023-04-15T01:41:10.023Z,8.88
2023-04-15T01:43:38.811Z,8.13
2023-04-15T01:46:07.098Z,8.90
2023-04-15T01:48:34.684Z,8.32
2023-04-15T01:51:03.439Z,8.68
2023-04-15T01:53:30.925Z,8.38
2023-04-15T01:55:58.395Z,8.27
2023-04-15T01:58:26.100Z,8.38
2023-04-15T02:00:55.057Z,8.45
2023-04-15T02:03:22.671Z,8.05
2023-04-15T02:05:50.997Z,6.95
2023-04-15T02:08:18.474Z,7.38
2023-04-15T02:10:45.940Z,7.88
2023-04-15T02:13:13.770Z,7.50
2023-04-15T02:15:41.258Z,7.55
2023-04-15T02:18:10.069Z,7.13
2023-04-15T02:20:37.991Z,7.80
2023-04-15T02:23:07.310Z,7.90
2023-04-15T02:25:34.829Z,7.22
2023-04-15T02:28:02.382Z,8.60
2023-04-15T02:30:29.858Z,7.38
2023-04-15T02:32:57.529Z,7.78
2023-04-15T02:35:26.693Z,7.03
2023-04-15T02:37:54.219Z,7.30
2023-04-15T02:40:21.767Z,8.13
2023-04-15T02:42:49.214Z,8.35
2023-04-15T02:45:16.971Z,8.75
2023-04-15T02:47:46.029Z,8.75
2023-04-15T02:50:15.090Z,10.95
2023-04-15T02:52:44.649Z,13.35
2023-04-15T02:55:12.625Z,12.25
2023-04-15T02:57:41.080Z,14.05
2023-04-15T03:00:11.533Z,12.43
2023-04-15T03:02:40.980Z,13.90
2023-04-15T03:05:12.812Z,12.95
2023-04-15T03:07:40.923Z,14.18
2023-04-15T03:10:11.034Z,12.65
2023-04-15T03:12:38.564Z,14.55
2023-04-15T03:15:07.008Z,14.15
2023-04-15T03:17:34.537Z,14.13
2023-04-15T03:20:02.745Z,11.70
2023-04-15T03:22:30.455Z,12.40
2023-04-15T03:24:58.070Z,12.68
2023-04-15T03:27:26.980Z,11.50
2023-04-15T03:29:54.450Z,9.70
2023-04-15T03:32:22.005Z,9.75
2023-04-15T03:34:49.524Z,10.40
2023-04-15T03:37:17.007Z,9.82
2023-04-15T03:39:44.497Z,10.52
2023-04-15T03:42:12.055Z,12.10
2023-04-15T03:44:41.326Z,12.68
2023-04-15T03:47:08.811Z,12.05
2023-04-15T03:49:36.862Z,10.88
2023-04-15T03:52:04.402Z,12.00
2023-04-15T03:54:31.886Z,11.85
2023-04-15T03:56:59.360Z,11.80
2023-04-15T03:59:26.888Z,10.90
2023-04-15T04:01:55.915Z,11.13
2023-04-15T04:04:23.609Z,12.30
2023-04-15T04:06:51.253Z,10.40
2023-04-15T04:09:18.787Z,12.82
2023-04-15T04:11:46.623Z,12.48
2023-04-15T04:14:14.101Z,11.23
2023-04-15T04:16:42.135Z,9.65
2023-04-15T04:19:11.000Z,11.23
2023-04-15T04:21:39.615Z,11.10
2023-04-15T04:24:07.188Z,11.13
2023-04-15T04:26:34.685Z,9.90
2023-04-15T04:29:02.457Z,8.23
2023-04-15T04:31:30.130Z,8.35
2023-04-15T04:33:57.658Z,8.10
2023-04-15T04:36:26.560Z,7.65
2023-04-15T04:38:54.059Z,7.75
2023-04-15T04:41:21.536Z,8.07
2023-04-15T04:43:49.166Z,7.72
2023-04-15T04:46:16.761Z,7.85
2023-04-15T04:48:47.089Z,8.02
2023-04-15T04:51:14.770Z,6.57
2023-04-15T04:53:44.017Z,6.63
2023-04-15T04:56:11.609Z,6.20
2023-04-15T04:58:39.138Z,6.05
2023-04-15T05:01:06.864Z,5.75
2023-04-15T05:03:34.414Z,5.93
2023-04-15T05:06:03.094Z,6.20
2023-04-15T05:08:30.559Z,6.28
2023-04-15T05:10:59.431Z,6.57
2023-04-15T05:13:27.089Z,5.90
2023-04-15T05:15:54.625Z,5.28
2023-04-15T05:18:22.165Z,6.85
2023-04-15T05:20:50.391Z,6.05
2023-04-15T05:23:18.627Z,5.93
2023-04-15T05:25:46.233Z,6.25
2023-04-15T05:28:15.075Z,6.30
2023-04-15T05:30:42.611Z,6.88
2023-04-15T05:33:10.159Z,5.88
2023-04-15T05:35:37.666Z,6.43
2023-04-15T05:38:05.128Z,5.68
2023-04-15T05:40:32.635Z,5.80
2023-04-15T05:43:00.128Z,6.38
2023-04-15T05:45:28.918Z,6.82
2023-04-15T05:47:56.724Z,10.38
2023-04-15T05:50:24.290Z,9.00
2023-04-15T05:52:51.874Z,6.70
2023-04-15T05:55:19.458Z,6.47
2023-04-15T05:57:46.938Z,7.47
2023-04-15T06:00:15.430Z,31.85
2023-04-15T06:02:44.504Z,8.90
2023-04-15T06:05:12.109Z,7.22
2023-04-15T06:07:39.681Z,6.97
2023-04-15T06:10:08.640Z,8.60
2023-04-15T06:12:36.220Z,6.70
2023-04-15T06:15:03.934Z,6.47
2023-04-15T06:17:31.450Z,6.28
2023-04-15T06:20:00.315Z,5.93
2023-04-15T06:22:27.797Z,7.47
2023-04-15T06:24:55.587Z,5.57
2023-04-15T06:27:23.672Z,5.07
2023-04-15T06:29:51.281Z,6.13
2023-04-15T06:32:18.742Z,5.15
2023-04-15T06:34:46.231Z,6.10
2023-04-15T06:37:16.304Z,5.30
2023-04-15T06:39:44.572Z,11.30
2023-04-15T06:42:12.283Z,21.02
2023-04-15T06:44:39.979Z,11.65
2023-04-15T06:47:07.588Z,17.45
2023-04-15T06:49:35.073Z,6.13
2023-04-15T06:52:02.836Z,13.57
2023-04-15T06:54:31.961Z,16.98
2023-04-15T06:56:59.456Z,6.15
2023-04-15T06:59:27.339Z,8.75
2023-04-15T07:01:54.868Z,5.57
2023-04-15T07:04:22.492Z,6.15
2023-04-15T07:06:50.062Z,7.15
2023-04-15T07:09:17.553Z,20.05
2023-04-15T07:11:46.374Z,21.45
2023-04-15T07:14:13.979Z,15.30
2023-04-15T07:16:41.811Z,6.28
2023-04-15T07:19:09.366Z,5.65
2023-04-15T07:21:36.985Z,7.55
2023-04-15T07:24:04.577Z,7.32
2023-04-15T07:26:32.106Z,14.23
2023-04-15T07:29:01.222Z,16.08
2023-04-15T07:31:29.215Z,7.05
2023-04-15T07:33:56.799Z,6.32
2023-04-15T07:36:24.382Z,7.38
2023-04-15T07:38:52.101Z,12.38
2023-04-15T07:41:20.461Z,8.32
2023-04-15T07:43:48.406Z,15.23
2023-04-15T07:46:17.274Z,8.82
2023-04-15T07:48:44.793Z,7.60
2023-04-15T07:51:12.905Z,13.07
2023-04-15T07:53:40.413Z,9.45
2023-04-15T07:56:08.306Z,8.90
2023-04-15T07:58:36.015Z,10.30
2023-04-15T08:01:03.518Z,9.27
2023-04-15T08:03:33.275Z,8.82
2023-04-15T08:06:00.926Z,9.57
2023-04-15T08:08:28.422Z,9.82
2023-04-15T08:10:55.914Z,8.43
2023-04-15T08:13:23.395Z,10.98
2023-04-15T08:16:13.452Z,10.88
2023-04-15T08:18:42.409Z,14.43
2023-04-15T08:21:10.334Z,13.07
2023-04-15T08:23:38.487Z,13.10
2023-04-15T08:26:06.027Z,13.18
2023-04-15T08:28:33.529Z,14.52
2023-04-15T08:31:01.332Z,11.90
2023-04-15T08:33:28.932Z,14.65
2023-04-15T08:35:57.800Z,12.73
2023-04-15T08:38:25.498Z,13.13
2023-04-15T08:40:53.277Z,14.63
2023-04-15T08:43:24.114Z,16.67
2023-04-15T08:45:52.128Z,13.50
2023-04-15T08:48:20.361Z,16.10
2023-04-15T08:50:48.735Z,17.38
2023-04-15T08:53:17.654Z,18.30
2023-04-15T08:55:47.707Z,17.75
2023-04-15T08:58:17.152Z,18.45
2023-04-15T09:00:44.701Z,20.02
2023-04-15T09:03:12.487Z,18.05
2023-04-15T09:05:40.070Z,19.08
2023-04-15T09:08:07.610Z,21.25
2023-04-15T09:10:36.763Z,22.60
2023-04-15T09:13:04.483Z,22.30
2023-04-15T09:15:34.034Z,23.75
2023-04-15T09:18:01.599Z,23.30
2023-04-15T09:20:29.444Z,26.83
2023-04-15T09:22:57.125Z,29.63
2023-04-15T09:25:29.289Z,28.85
2023-04-15T09:28:01.587Z,30.35
2023-04-15T09:30:29.901Z,28.65
2023-04-15T09:32:58.918Z,32.15
2023-04-15T09:35:27.689Z,31.60
2023-04-15T09:38:02.974Z,29.13
2023-04-15T09:40:34.816Z,32.05
2023-04-15T09:43:05.100Z,30.38
2023-04-15T09:45:33.663Z,30.77
2023-04-15T09:48:17.880Z,31.75
2023-04-15T09:50:45.877Z,34.42
2023-04-15T09:53:17.754Z,31.85
2023-04-15T09:55:46.821Z,33.53
2023-04-15T09:58:25.761Z,30.42
2023-04-15T10:00:54.809Z,25.13
2023-04-15T10:03:24.557Z,30.30
2023-04-15T10:05:53.277Z,34.70
2023-04-15T10:08:22.373Z,31.73
2023-04-15T10:10:51.764Z,36.42
2023-04-15T10:13:20.437Z,33.90
2023-04-15T10:15:52.260Z,33.05
2023-04-15T10:18:22.284Z,34.40
2023-04-15T10:20:50.230Z,31.25
2023-04-15T10:23:18.914Z,31.35
2023-04-15T10:25:47.157Z,32.17
2023-04-15T10:28:16.892Z,29.88
2023-04-15T10:30:44.856Z,23.05
2023-04-15T10:33:14.170Z,30.75
2023-04-15T10:35:41.938Z,31.23
2023-04-15T10:38:33.863Z,29.52
2023-04-15T10:41:14.195Z,29.13
2023-04-15T10:43:42.275Z,32.30
2023-04-15T10:46:09.854Z,31.92
2023-04-15T10:48:38.789Z,38.55
2023-04-15T10:51:06.501Z,34.70
2023-04-15T10:53:34.025Z,37.65
2023-04-15T10:56:01.559Z,37.45
2023-04-15T10:58:42.654Z,39.58
2023-04-15T11:01:10.641Z,37.25
2023-04-15T11:03:40.973Z,32.58
2023-04-15T11:06:08.550Z,34.60
2023-04-15T11:08:56.574Z,33.67
2023-04-15T11:11:24.123Z,34.45
2023-04-15T11:13:52.661Z,31.77
2023-04-15T11:16:20.194Z,36.40
2023-04-15T11:18:56.740Z,39.70
2023-04-15T11:21:26.875Z,34.92
2023-04-15T11:23:54.337Z,35.30
2023-04-15T11:26:27.244Z,35.97
2023-04-15T11:31:23.947Z,29.02
2023-04-15T11:33:58.073Z,34.90
2023-04-15T11:36:28.076Z,26.67
2023-04-15T11:38:55.967Z,29.05
2023-04-15T11:41:23.911Z,28.95
2023-04-15T11:43:51.612Z,33.45
2023-04-15T11:46:19.212Z,43.40
2023-04-15T11:48:48.104Z,33.50
2023-04-15T11:51:16.941Z,33.15
2023-04-15T11:53:46.049Z,33.25
2023-04-15T11:56:18.986Z,33.72
2023-04-15T12:01:14.444Z,33.60
2023-04-15T12:03:44.001Z,39.22
2023-04-15T12:06:19.384Z,33.92
2023-04-15T12:09:08.683Z,31.33
2023-04-15T12:11:38.614Z,28.27
2023-04-15T12:14:14.280Z,30.50
2023-04-15T12:16:48.567Z,30.75
2023-04-15T12:19:19.663Z,34.20
2023-04-15T12:21:49.316Z,32.05
2023-04-15T12:24:16.904Z,31.23
2023-04-15T12:26:45.995Z,35.22
2023-04-15T12:29:14.990Z,31.77
2023-04-15T12:31:50.768Z,32.75
2023-04-15T12:34:18.803Z,31.67
2023-04-15T12:36:47.756Z,46.08
2023-04-15T12:39:15.281Z,43.05
2023-04-15T12:41:42.957Z,31.20
2023-04-15T12:44:10.451Z,30.15
2023-04-15T12:46:38.641Z,29.95
2023-04-15T12:49:06.155Z,27.40
2023-04-15T12:51:33.698Z,29.27
2023-04-15T12:54:02.877Z,30.23
2023-04-15T12:56:30.688Z,30.25
2023-04-15T12:58:58.323Z,23.10
2023-04-15T13:01:26.183Z,32.67
2023-04-15T13:03:53.779Z,29.17
2023-04-15T13:06:21.578Z,30.77
2023-04-15T13:08:57.810Z,30.00
2023-04-15T13:11:27.711Z,27.75
2023-04-15T13:13:55.968Z,27.85
2023-04-15T13:16:23.835Z,32.63
2023-04-15T13:18:51.770Z,32.85
2023-04-15T13:21:19.808Z,33.40
2023-04-15T13:23:47.578Z,31.27
2023-04-15T13:26:15.082Z,31.95
2023-04-15T13:28:43.902Z,29.23
2023-04-15T13:31:11.591Z,32.13
2023-04-15T13:33:39.086Z,27.92
2023-04-15T13:36:07.832Z,32.53
2023-04-15T13:38:35.311Z,35.80
2023-04-15T13:41:02.801Z,34.58
2023-04-15T13:43:30.579Z,29.80
2023-04-15T13:45:59.496Z,32.00
2023-04-15T13:48:26.996Z,28.48
2023-04-15T13:50:54.553Z,31.30
2023-04-15T13:53:33.769Z,30.70
2023-04-15T13:56:07.292Z,24.25
2023-04-15T13:58:34.823Z,29.90
2023-04-15T14:01:05.819Z,29.27
2023-04-15T14:03:34.074Z,29.15
2023-04-15T14:06:01.802Z,27.35
2023-04-15T14:08:29.708Z,30.77
2023-04-15T14:10:57.675Z,31.95
2023-04-15T14:13:25.301Z,31.52
2023-04-15T14:15:52.905Z,28.33
2023-04-15T14:18:21.733Z,28.08
2023-04-15T14:20:49.322Z,30.33
2023-04-15T14:23:16.839Z,28.65
2023-04-15T14:25:46.735Z,31.73
2023-04-15T14:28:15.726Z,27.52
2023-04-15T14:30:43.263Z,25.08
2023-04-15T14:33:10.802Z,28.08
2023-04-15T14:35:39.929Z,30.15
2023-04-15T14:38:10.535Z,30.17
2023-04-15T14:40:38.534Z,29.63
2023-04-15T14:43:06.279Z,26.48
2023-04-15T14:45:33.840Z,29.58
2023-04-15T14:48:01.540Z,25.90
2023-04-15T14:50:29.226Z,29.27
2023-04-15T14:52:58.014Z,27.83
2023-04-15T14:55:25.770Z,29.70
2023-04-15T14:57:53.248Z,28.98
2023-04-15T15:00:20.772Z,30.25
2023-04-15T15:02:48.518Z,26.10
2023-04-15T15:05:16.257Z,30.67
2023-04-15T15:07:43.929Z,21.88
2023-04-15T15:10:12.851Z,30.73
2023-04-15T15:12:40.365Z,30.55
2023-04-15T15:15:25.199Z,32.22
2023-04-15T15:17:56.219Z,33.38
2023-04-15T15:20:24.190Z,28.83
2023-04-15T15:22:51.848Z,28.42
2023-04-15T15:25:20.674Z,27.90
2023-04-15T15:27:48.466Z,29.50
2023-04-15T15:30:16.240Z,24.90
2023-04-15T15:32:44.145Z,28.80
2023-04-15T15:35:12.203Z,24.27
2023-04-15T15:37:39.689Z,21.73
2023-04-15T15:40:08.193Z,22.48
2023-04-15T15:42:36.983Z,26.33
2023-04-15T15:45:05.136Z,27.25
2023-04-15T15:47:33.135Z,25.63
2023-04-15T15:50:03.023Z,26.65
2023-04-15T15:52:31.191Z,27.13
2023-04-15T15:54:58.806Z,29.83
2023-04-15T15:57:26.312Z,40.35
2023-04-15T16:00:09.923Z,46.95
2023-04-15T16:05:09.907Z,39.42
2023-04-15T16:07:37.404Z,34.45
2023-04-15T16:10:05.594Z,29.60
2023-04-15T16:12:34.835Z,38.38
2023-04-15T16:15:04.285Z,32.00
2023-04-15T16:17:31.876Z,31.25
2023-04-15T16:20:01.200Z,31.88
2023-04-15T16:22:28.959Z,27.38
2023-04-15T16:24:56.444Z,28.73
2023-04-15T16:27:23.935Z,25.85
2023-04-15T16:29:51.431Z,25.83
2023-04-15T16:32:20.396Z,24.02
2023-04-15T16:34:48.377Z,27.60
2023-04-15T16:37:15.896Z,27.60
2023-04-15T16:39:43.381Z,25.30
2023-04-15T16:42:11.133Z,27.92
2023-04-15T16:44:38.878Z,26.05
2023-04-15T16:47:06.467Z,25.88
2023-04-15T16:49:35.552Z,24.10
2023-04-15T16:52:03.215Z,21.58
2023-04-15T16:54:31.101Z,24.25
2023-04-15T16:56:58.606Z,22.92
2023-04-15T16:59:27.221Z,23.42
2023-04-15T17:01:55.052Z,23.17
2023-04-15T17:04:22.893Z,24.27
2023-04-15T17:06:51.969Z,22.25
2023-04-15T17:09:19.512Z,22.67
2023-04-15T17:11:46.995Z,22.00
2023-04-15T17:14:14.576Z,26.48
2023-04-15T17:16:43.132Z,24.30
2023-04-15T17:19:10.640Z,23.23
2023-04-15T17:21:38.130Z,23.02
2023-04-15T17:24:07.093Z,26.45
2023-04-15T17:26:34.661Z,31.77
2023-04-15T17:29:02.494Z,27.08
2023-04-15T17:31:30.814Z,25.45
2023-04-15T17:34:08.712Z,27.40
2023-04-15T17:36:38.963Z,33.40
2023-04-15T17:39:07.986Z,44.30
2023-04-15T17:41:35.538Z,24.85
2023-04-15T17:44:03.133Z,34.95
2023-04-15T17:46:31.824Z,24.38
2023-04-15T17:48:59.351Z,34.28
2023-04-15T17:51:28.016Z,28.58
2023-04-15T17:53:55.714Z,33.13
2023-04-15T17:56:25.096Z,27.17
2023-04-15T17:58:53.056Z,23.60
2023-04-15T18:01:22.338Z,23.85
2023-04-15T18:03:50.180Z,26.17
2023-04-15T18:06:19.913Z,26.30
2023-04-15T18:08:47.389Z,25.13
2023-04-15T18:11:14.877Z,25.10
2023-04-15T18:13:43.801Z,23.80
2023-04-15T18:16:11.358Z,22.30
2023-04-15T18:18:38.857Z,21.83
2023-04-15T18:21:06.505Z,22.95
2023-04-15T18:23:33.980Z,22.10
2023-04-15T18:26:01.538Z,23.75
2023-04-15T18:28:29.167Z,24.15
2023-04-15T18:30:57.960Z,23.33
2023-04-15T18:33:25.542Z,18.25
2023-04-15T18:35:53.056Z,22.65
2023-04-15T18:38:20.573Z,24.85
2023-04-15T18:40:48.093Z,22.60
2023-04-15T18:43:15.676Z,20.52
2023-04-15T18:45:43.726Z,23.23
2023-04-15T18:48:14.173Z,20.80
2023-04-15T18:50:41.684Z,20.17
2023-04-15T18:53:09.195Z,23.13
2023-04-15T18:55:36.745Z,21.10
2023-04-15T18:58:08.614Z,20.60
2023-04-15T19:00:40.596Z,22.13
2023-04-15T19:03:08.619Z,21.50
2023-04-15T19:05:37.934Z,21.15
2023-04-15T19:08:05.770Z,21.58
2023-04-15T19:10:34.971Z,19.83
2023-04-15T19:13:03.579Z,19.38
2023-04-15T19:15:31.777Z,19.38
2023-04-15T19:17:59.347Z,20.08
2023-04-15T19:20:26.935Z,18.05
2023-04-15T19:22:56.746Z,18.13
2023-04-15T19:25:24.259Z,18.45
2023-04-15T19:27:51.733Z,18.70
2023-04-15T19:30:19.419Z,19.92
2023-04-15T19:32:47.049Z,18.70
2023-04-15T19:35:14.596Z,18.73
2023-04-15T19:37:42.163Z,18.08
2023-04-15T19:40:11.469Z,19.77
2023-04-15T19:42:38.958Z,20.30
2023-04-15T19:45:07.445Z,18.05
2023-04-15T19:47:35.212Z,19.25
2023-04-15T19:50:02.820Z,20.48
2023-04-15T19:52:30.341Z,22.23
2023-04-15T19:54:57.842Z,23.33
2023-04-15T19:57:26.798Z,23.25
2023-04-15T19:59:54.301Z,22.23
2023-04-15T20:02:22.256Z,23.80
2023-04-15T20:04:49.864Z,20.65
2023-04-15T20:07:17.396Z,21.90
2023-04-15T20:09:45.407Z,20.77
2023-04-15T20:12:51.019Z,20.33
2023-04-15T20:15:01.722Z,20.77
2023-04-15T20:17:33.330Z,19.85
2023-04-15T20:20:00.939Z,17.40
2023-04-15T20:22:28.428Z,18.33
2023-04-15T20:24:55.926Z,12.98
2023-04-15T20:27:23.406Z,16.13
2023-04-15T20:29:51.522Z,19.35
2023-04-15T20:32:20.471Z,18.42
2023-04-15T20:34:48.207Z,20.00
2023-04-15T20:37:16.058Z,19.15
2023-04-15T20:39:43.528Z,20.60
2023-04-15T20:42:11.248Z,19.88
2023-04-15T20:44:39.319Z,19.25
2023-04-15T20:47:07.160Z,23.30
2023-04-15T20:49:36.580Z,21.48
2023-04-15T20:52:04.557Z,21.02
2023-04-15T20:54:32.077Z,19.92
2023-04-15T20:56:59.605Z,21.58
2023-04-15T20:59:27.192Z,23.33
2023-04-15T21:01:56.838Z,21.30
2023-04-15T21:04:24.656Z,20.67
2023-04-15T21:06:53.525Z,22.35
2023-04-15T21:09:21.008Z,22.23
2023-04-15T21:12:00.601Z,21.45
2023-04-15T21:14:29.385Z,19.70
2023-04-15T21:16:58.064Z,22.08
2023-04-15T21:19:25.698Z,21.42
2023-04-15T21:21:54.593Z,21.80
2023-04-15T21:24:22.077Z,21.58
2023-04-15T21:26:49.751Z,22.40
2023-04-15T21:29:17.214Z,20.80
2023-04-15T21:31:44.797Z,20.73
2023-04-15T21:34:12.574Z,20.30
2023-04-15T21:36:40.096Z,20.75
2023-04-15T21:39:08.888Z,19.02
2023-04-15T21:41:37.668Z,18.35
2023-04-15T21:44:05.411Z,18.52
2023-04-15T21:46:35.910Z,18.92
2023-04-15T21:49:03.908Z,19.52
2023-04-15T21:51:32.579Z,20.85
2023-04-15T21:54:00.407Z,19.67
2023-04-15T21:56:29.276Z,19.88
2023-04-15T21:58:58.093Z,18.05
2023-04-15T22:01:26.526Z,18.05
2023-04-15T22:03:54.396Z,16.48
2023-04-15T22:06:22.209Z,17.60
2023-04-15T22:08:56.657Z,18.27
2023-04-15T22:11:27.868Z,19.83
2023-04-15T22:13:57.792Z,19.55
2023-04-15T22:16:25.807Z,20.20
2023-04-15T22:18:53.470Z,19.05
2023-04-15T22:21:20.995Z,18.38
2023-04-15T22:23:48.558Z,16.20
2023-04-15T22:26:16.109Z,17.35
2023-04-15T22:28:44.093Z,17.33
2023-04-15T22:31:13.700Z,17.38
2023-04-15T22:33:41.254Z,20.52
2023-04-15T22:36:08.851Z,19.05
2023-04-15T22:38:36.882Z,18.63
2023-04-15T22:41:04.412Z,19.95
2023-04-15T22:43:31.881Z,19.35
2023-04-15T22:45:59.417Z,19.25
2023-04-15T22:48:28.202Z,18.25
2023-04-15T22:50:55.948Z,18.00
2023-04-15T22:53:23.469Z,18.50
2023-04-15T22:55:51.697Z,19.40
2023-04-15T22:58:19.260Z,20.42
2023-04-15T23:00:46.856Z,18.35
2023-04-15T23:03:14.454Z,18.45
2023-04-15T23:05:45.641Z,21.17
2023-04-15T23:08:13.202Z,21.90
2023-04-15T23:10:40.730Z,20.90
2023-04-15T23:13:08.225Z,19.48
2023-04-15T23:15:35.931Z,21.67
2023-04-15T23:18:03.525Z,20.05
2023-04-15T23:20:31.054Z,20.58
2023-04-15T23:22:59.863Z,23.35
2023-04-15T23:25:27.365Z,26.13
2023-04-15T23:27:55.024Z,28.23
2023-04-15T23:30:22.644Z,28.65
2023-04-15T23:32:50.208Z,21.35
2023-04-15T23:35:17.882Z,26.45
2023-04-15T23:37:45.403Z,29.90
2023-04-15T23:40:15.612Z,26.83
2023-04-15T23:42:43.138Z,28.50
2023-04-15T23:45:11.781Z,31.33
2023-04-15T23:47:39.344Z,28.55
2023-04-15T23:50:08.386Z,28.83
2023-04-15T23:52:36.266Z,29.45
2023-04-15T23:55:03.997Z,28.80
2023-04-15T23:57:32.806Z,29.98
